Dobrodošli na spletni strani vremenske postaje Senovo. Vse informacije so informativnega značaja, saj vremenska postaja ni del državne mreže meteoroloških postaj. AKTUALNIH OBVESTIL NI.


Posebna pozornost v zvezi z vremenskimi dogajanji ni potrebna.    Posebna pozornost v zvezi z vremenskimi dogajanji ni potrebna.

Pogled proti Armezu več informacij Pogled proti Armezu


Lisca več informacij Lisca


Radar strel več informacij blitzortung!


Radar padavin več informacij rain snow radar


Obiščite še:

Template documentation
and downloads

And another site



Weather Underground, zgodovina - Tekstovno

Dnevni povzetek za Januar 17, 2018 Enote:  Obe    Angleško   Metrično
« Predhodni Dan
Naslednji Dan »
Dnevni Tedenski Mesečni Letni Po meri
  Višja: Nižja: Povprečje:
Temperatura: TemperatureC °F /  -17.8 °C -2.3 °F /  -19.1 °C 3.3 °F /  -15.9 °C
Točka rosišča: DewpointC °F /  -17.8 °C -10.1 °F /  -23.4 °C -2.2 °F /  -19 °C
Vlažnost: Humidity % 39 % 69 %
Hitrost vetra: WindSpeedKMH mph /  0 km/h - 1.9 mph /  3.1 km/h
Sunki vetra: WindSpeedGustKMH mph /  0 km/h - -
Veter:- - WSW
Zračni tlak: PressurehPa in /  0 hPa 994.1 in /  33660.2 hPa -
Padavine: 2.5 in /  63.5 mm    
Historical Graphs
 
 
Tabelarni podarki za Januar 17, 2018
Čas Temperatura Točka rosišča Zračni tlak Veter Hitrost vetra Sunki vetra Vlažnost Intenziteta padavin (urna)
TemperatureC °F /  -17.8 °C DewpointC °F /  -17.8 °C PressurehPa in /  0 hPa Calm     Humidity % HourlyPrecipMM in /  0 mm
00:03 8.1 °F /  -13.3 °C 2.3 °F /  -16.5 °C 998.9 in /  33822.8 hPa SW 5.5 mph /  8.9 km/h 14.0 mph /  22.5 km/h 67 % 0.0 in /  0 mm
00:14 7.9 °F /  -13.4 °C 2.3 °F /  -16.5 °C 998.9 in /  33822.8 hPa South 5.3 mph /  8.5 km/h 9.0 mph /  14.5 km/h 68 % 0.0 in /  0 mm
00:24 7.5 °F /  -13.6 °C 1.9 °F /  -16.7 °C 998.9 in /  33822.8 hPa SSE 5.0 mph /  8 km/h 10.5 mph /  16.9 km/h 68 % 0.0 in /  0 mm
00:37 7.3 °F /  -13.7 °C 1.8 °F /  -16.8 °C 998.9 in /  33822.8 hPa SSW 4.8 mph /  7.7 km/h 10.1 mph /  16.3 km/h 68 % 0.0 in /  0 mm
00:47 7.1 °F /  -13.8 °C 1.6 °F /  -16.9 °C 998.9 in /  33822.8 hPa SSW 4.3 mph /  6.9 km/h 9.3 mph /  15 km/h 68 % 0.0 in /  0 mm
01:00 6.8 °F /  -14 °C 1.5 °F /  -16.9 °C 998.9 in /  33822.8 hPa SW 1.4 mph /  2.3 km/h 4.7 mph /  7.6 km/h 69 % 0.0 in /  0 mm
01:36 6.2 °F /  -14.3 °C 1.3 °F /  -17.1 °C 996.8 in /  33751.6 hPa SW 1.4 mph /  2.3 km/h 4.3 mph /  6.9 km/h 71 % 0.0 in /  0 mm
01:52 5.8 °F /  -14.6 °C 1.1 °F /  -17.2 °C 996.8 in /  33751.6 hPa Calm     72 % 0.0 in /  0 mm
01:59 5.8 °F /  -14.6 °C 1.3 °F /  -17.1 °C 996.2 in /  33731.3 hPa Calm     73 % 0.0 in /  0 mm
02:05 5.7 °F /  -14.6 °C 1.2 °F /  -17.1 °C 996.2 in /  33731.3 hPa Calm     73 % 0.0 in /  0 mm
02:24 5.5 °F /  -14.7 °C 1.2 °F /  -17.1 °C 996.8 in /  33751.6 hPa Calm     74 % 0.0 in /  0 mm
02:32 5.5 °F /  -14.7 °C 1.4 °F /  -17 °C 996.8 in /  33751.6 hPa Calm     75 % 0.0 in /  0 mm
02:39 5.4 °F /  -14.8 °C 1.3 °F /  -17.1 °C 996.8 in /  33751.6 hPa Calm     75 % 0.0 in /  0 mm
02:49 5.4 °F /  -14.8 °C 1.5 °F /  -16.9 °C 996.2 in /  33731.3 hPa Calm     76 % 0.0 in /  0 mm
02:55 5.4 °F /  -14.8 °C 1.5 °F /  -16.9 °C 996.2 in /  33731.3 hPa SW 0.2 mph /  0.3 km/h 2.6 mph /  4.2 km/h 76 % 0.0 in /  0 mm
03:07 5.4 °F /  -14.8 °C 1.7 °F /  -16.8 °C 996.2 in /  33731.3 hPa Calm     77 % 0.0 in /  0 mm
03:17 5.4 °F /  -14.8 °C 1.7 °F /  -16.8 °C 996.2 in /  33731.3 hPa West 0.2 mph /  0.3 km/h 3.2 mph /  5.1 km/h 77 % 0.0 in /  0 mm
03:24 5.4 °F /  -14.8 °C 1.9 °F /  -16.7 °C 996.2 in /  33731.3 hPa Calm     78 % 0.0 in /  0 mm
03:30 5.4 °F /  -14.8 °C 1.9 °F /  -16.7 °C 996.2 in /  33731.3 hPa SW 0.5 mph /  0.8 km/h 4.0 mph /  6.4 km/h 78 % 0.0 in /  0 mm
03:37 5.5 °F /  -14.7 °C 2.2 °F /  -16.6 °C 996.2 in /  33731.3 hPa SW 0.5 mph /  0.8 km/h 4.0 mph /  6.4 km/h 79 % 0.0 in /  0 mm
03:45 5.5 °F /  -14.7 °C 2.3 °F /  -16.5 °C 995.1 in /  33694.1 hPa NW 0.5 mph /  0.8 km/h 4.0 mph /  6.4 km/h 80 % 0.0 in /  0 mm
04:03 5.6 °F /  -14.7 °C 2.6 °F /  -16.3 °C 995.1 in /  33694.1 hPa SSW 0.3 mph /  0.5 km/h 2.1 mph /  3.4 km/h 81 % 0.0 in /  0 mm
04:10 5.5 °F /  -14.7 °C 2.5 °F /  -16.4 °C 995.1 in /  33694.1 hPa West 0.2 mph /  0.3 km/h 2.6 mph /  4.2 km/h 81 % 0.0 in /  0 mm
04:37 5.5 °F /  -14.7 °C 2.7 °F /  -16.3 °C 995.1 in /  33694.1 hPa Calm     82 % 0.0 in /  0 mm
04:43 5.5 °F /  -14.7 °C 2.8 °F /  -16.2 °C 995.1 in /  33694.1 hPa Calm     83 % 0.0 in /  0 mm
04:52 5.5 °F /  -14.7 °C 2.8 °F /  -16.2 °C 995.1 in /  33694.1 hPa NW 0.2 mph /  0.3 km/h 2.6 mph /  4.2 km/h 83 % 0.0 in /  0 mm
05:24 5.5 °F /  -14.7 °C 3.0 °F /  -16.1 °C 995.1 in /  33694.1 hPa SSW 0.3 mph /  0.5 km/h 2.6 mph /  4.2 km/h 84 % 0.0 in /  0 mm
06:11 5.4 °F /  -14.8 °C 3.2 °F /  -16 °C 995.1 in /  33694.1 hPa West 1.9 mph /  3.1 km/h 4.3 mph /  6.9 km/h 86 % 0.3 in /  7.62 mm
06:24 5.5 °F /  -14.7 °C 3.3 °F /  -15.9 °C 995.1 in /  33694.1 hPa SW 2.6 mph /  4.2 km/h 5.0 mph /  8 km/h 86 % 0.3 in /  7.62 mm
06:30 5.5 °F /  -14.7 °C 3.3 °F /  -15.9 °C 995.1 in /  33694.1 hPa SSE 0.5 mph /  0.8 km/h 3.5 mph /  5.6 km/h 86 % 0.3 in /  7.62 mm
06:39 5.4 °F /  -14.8 °C 3.2 °F /  -16 °C 995.1 in /  33694.1 hPa Calm     86 % 0.5 in /  12.7 mm
06:46 5.4 °F /  -14.8 °C 3.4 °F /  -15.9 °C 995.1 in /  33694.1 hPa WNW 0.5 mph /  0.8 km/h 2.6 mph /  4.2 km/h 87 % 0.5 in /  12.7 mm
07:03 5.3 °F /  -14.8 °C 3.3 °F /  -15.9 °C 995.1 in /  33694.1 hPa SSW 1.6 mph /  2.6 km/h 5.0 mph /  8 km/h 87 % 0.3 in /  7.62 mm
07:10 5.3 °F /  -14.8 °C 3.3 °F /  -15.9 °C 995.1 in /  33694.1 hPa WSW 1.0 mph /  1.6 km/h 4.3 mph /  6.9 km/h 87 % 0.3 in /  7.62 mm
07:28 5.3 °F /  -14.8 °C 3.5 °F /  -15.8 °C 995.1 in /  33694.1 hPa SW 2.9 mph /  4.7 km/h 6.4 mph /  10.3 km/h 88 % 0.5 in /  12.7 mm
07:39 5.3 °F /  -14.8 °C 3.5 °F /  -15.8 °C 995.1 in /  33694.1 hPa North 0.2 mph /  0.3 km/h   88 % 0.5 in /  12.7 mm
07:46 5.3 °F /  -14.8 °C 3.5 °F /  -15.8 °C 994.1 in /  33660.2 hPa Calm     88 % 1.0 in /  25.4 mm
07:54 5.3 °F /  -14.8 °C 3.6 °F /  -15.8 °C 994.1 in /  33660.2 hPa WSW 1.3 mph /  2.1 km/h 4.0 mph /  6.4 km/h 89 % 1.0 in /  25.4 mm
08:37 5.3 °F /  -14.8 °C 3.8 °F /  -15.7 °C 996.2 in /  33731.3 hPa Calm     90 % 0.5 in /  12.7 mm
08:43 5.3 °F /  -14.8 °C 3.9 °F /  -15.6 °C 995.1 in /  33694.1 hPa SSE 0.5 mph /  0.8 km/h 3.5 mph /  5.6 km/h 91 % 0.3 in /  7.62 mm
08:50 5.3 °F /  -14.8 °C 3.9 °F /  -15.6 °C 995.1 in /  33694.1 hPa SSW 1.4 mph /  2.3 km/h 4.7 mph /  7.6 km/h 91 % 0.3 in /  7.62 mm
08:56 5.4 °F /  -14.8 °C 4.1 °F /  -15.5 °C 995.1 in /  33694.1 hPa SSW 1.1 mph /  1.8 km/h 4.7 mph /  7.6 km/h 91 % 0.0 in /  0 mm
09:09 5.4 °F /  -14.8 °C 4.1 °F /  -15.5 °C 995.1 in /  33694.1 hPa WNW 0.6 mph /  1 km/h 4.0 mph /  6.4 km/h 91 % 0.0 in /  0 mm
09:16 5.6 °F /  -14.7 °C 4.4 °F /  -15.3 °C 995.1 in /  33694.1 hPa Calm     92 % 0.0 in /  0 mm
09:22 5.7 °F /  -14.6 °C 4.5 °F /  -15.3 °C 995.1 in /  33694.1 hPa South 0.5 mph /  0.8 km/h 3.5 mph /  5.6 km/h 92 % 0.0 in /  0 mm
09:34 5.7 °F /  -14.6 °C 4.5 °F /  -15.3 °C 995.1 in /  33694.1 hPa Calm     92 % 0.0 in /  0 mm
09:56 5.8 °F /  -14.6 °C 4.8 °F /  -15.1 °C 995.1 in /  33694.1 hPa NNE 0.3 mph /  0.5 km/h 6.1 mph /  9.8 km/h 93 % 0.0 in /  0 mm
10:02 5.8 °F /  -14.6 °C 4.8 °F /  -15.1 °C 995.1 in /  33694.1 hPa NE 1.0 mph /  1.6 km/h 6.1 mph /  9.8 km/h 93 % 0.0 in /  0 mm
10:12 5.9 °F /  -14.5 °C 4.8 °F /  -15.1 °C 996.2 in /  33731.3 hPa East 1.8 mph /  2.9 km/h 6.1 mph /  9.8 km/h 93 % 0.0 in /  0 mm
10:21 5.8 °F /  -14.6 °C 4.8 °F /  -15.1 °C 996.2 in /  33731.3 hPa WSW 1.8 mph /  2.9 km/h 4.7 mph /  7.6 km/h 93 % 0.0 in /  0 mm
10:30 5.7 °F /  -14.6 °C 4.7 °F /  -15.2 °C 996.2 in /  33731.3 hPa North 0.2 mph /  0.3 km/h   93 % 0.0 in /  0 mm
10:42 5.7 °F /  -14.6 °C 4.7 °F /  -15.2 °C 996.2 in /  33731.3 hPa SW 0.5 mph /  0.8 km/h 4.0 mph /  6.4 km/h 93 % 0.0 in /  0 mm
10:48 5.7 °F /  -14.6 °C 4.7 °F /  -15.2 °C 996.2 in /  33731.3 hPa SSW 0.3 mph /  0.5 km/h 2.6 mph /  4.2 km/h 93 % 0.0 in /  0 mm
11:06 5.7 °F /  -14.6 °C 4.7 °F /  -15.2 °C 996.2 in /  33731.3 hPa West 0.8 mph /  1.3 km/h 4.7 mph /  7.6 km/h 93 % 0.0 in /  0 mm
11:15 5.8 °F /  -14.6 °C 4.8 °F /  -15.1 °C 996.2 in /  33731.3 hPa Calm   3.5 mph /  5.6 km/h 93 % 0.0 in /  0 mm
11:37 6.4 °F /  -14.2 °C 5.3 °F /  -14.8 °C 996.2 in /  33731.3 hPa SW 1.1 mph /  1.8 km/h 4.0 mph /  6.4 km/h 93 % 0.0 in /  0 mm
11:48 6.5 °F /  -14.2 °C 5.4 °F /  -14.8 °C 996.2 in /  33731.3 hPa SSW 1.0 mph /  1.6 km/h 4.7 mph /  7.6 km/h 93 % 0.0 in /  0 mm
12:29 6.6 °F /  -14.1 °C 5.4 °F /  -14.8 °C 996.2 in /  33731.3 hPa SSW 1.9 mph /  3.1 km/h 5.5 mph /  8.9 km/h 92 % 0.0 in /  0 mm
12:37 6.7 °F /  -14.1 °C 5.5 °F /  -14.7 °C 996.2 in /  33731.3 hPa South 1.4 mph /  2.3 km/h 4.3 mph /  6.9 km/h 92 % 0.0 in /  0 mm
12:54 6.6 °F /  -14.1 °C 5.4 °F /  -14.8 °C 996.2 in /  33731.3 hPa WSW 1.9 mph /  3.1 km/h 4.3 mph /  6.9 km/h 92 % 0.0 in /  0 mm
13:05 6.7 °F /  -14.1 °C 5.3 °F /  -14.8 °C 996.8 in /  33751.6 hPa WSW 0.2 mph /  0.3 km/h 4.7 mph /  7.6 km/h 91 % 0.0 in /  0 mm
13:12 6.7 °F /  -14.1 °C 5.3 °F /  -14.8 °C 996.8 in /  33751.6 hPa WSW 1.6 mph /  2.6 km/h 6.4 mph /  10.3 km/h 91 % 0.0 in /  0 mm
13:19 6.7 °F /  -14.1 °C 5.3 °F /  -14.8 °C 996.8 in /  33751.6 hPa WSW 3.7 mph /  6 km/h 6.4 mph /  10.3 km/h 91 % 0.0 in /  0 mm
13:30 6.9 °F /  -13.9 °C 5.4 °F /  -14.8 °C 997.9 in /  33788.9 hPa SW 3.5 mph /  5.6 km/h 5.8 mph /  9.3 km/h 90 % 0.0 in /  0 mm
13:50 7.0 °F /  -13.9 °C 5.3 °F /  -14.8 °C 997.9 in /  33788.9 hPa WSW 1.3 mph /  2.1 km/h 5.5 mph /  8.9 km/h 89 % 0.0 in /  0 mm
14:23 4.6 °F /  -15.2 °C 2.3 °F /  -16.5 °C 997.9 in /  33788.9 hPa NE 6.9 mph /  11.1 km/h 13.0 mph /  20.9 km/h 85 % 1.0 in /  25.4 mm
14:36 4.3 °F /  -15.4 °C 1.8 °F /  -16.8 °C 998.9 in /  33822.8 hPa NE 0.5 mph /  0.8 km/h 6.4 mph /  10.3 km/h 84 % 1.0 in /  25.4 mm
14:58 4.0 °F /  -15.6 °C 1.6 °F /  -16.9 °C 997.9 in /  33788.9 hPa NW 0.3 mph /  0.5 km/h 4.0 mph /  6.4 km/h 84 % 1.0 in /  25.4 mm
15:17 4.1 °F /  -15.5 °C 1.6 °F /  -16.9 °C 998.9 in /  33822.8 hPa NNW 3.9 mph /  6.3 km/h 11.1 mph /  17.9 km/h 84 % 0.0 in /  0 mm
15:38 4.6 °F /  -15.2 °C 1.9 °F /  -16.7 °C 999.9 in /  33856.6 hPa North 5.0 mph /  8 km/h 12.6 mph /  20.3 km/h 83 % 0.0 in /  0 mm
15:45 4.8 °F /  -15.1 °C 2.0 °F /  -16.7 °C 999.9 in /  33856.6 hPa NNW 4.7 mph /  7.6 km/h 9.3 mph /  15 km/h 82 % 0.0 in /  0 mm
16:07 4.9 °F /  -15.1 °C 1.2 °F /  -17.1 °C 999.9 in /  33856.6 hPa NW 4.2 mph /  6.8 km/h 15.8 mph /  25.4 km/h 77 % 0.0 in /  0 mm
16:16 5.1 °F /  -14.9 °C 1.1 °F /  -17.2 °C 999.9 in /  33856.6 hPa NNW 5.0 mph /  8 km/h 9.0 mph /  14.5 km/h 75 % 0.0 in /  0 mm
16:21 5.1 °F /  -14.9 °C 0.8 °F /  -17.3 °C 999.9 in /  33856.6 hPa NNW 4.3 mph /  6.9 km/h 8.7 mph /  14 km/h 74 % 0.0 in /  0 mm
16:27 5.0 °F /  -15 °C 0.4 °F /  -17.6 °C 999.9 in /  33856.6 hPa North 3.9 mph /  6.3 km/h 9.7 mph /  15.6 km/h 72 % 0.0 in /  0 mm
16:38 4.8 °F /  -15.1 °C 0.0 °F /  -17.8 °C 999.9 in /  33856.6 hPa North 2.6 mph /  4.2 km/h 6.9 mph /  11.1 km/h 71 % 0.0 in /  0 mm
16:56 5.2 °F /  -14.9 °C -0.7 °F /  -18.2 °C 1000.9 in /  33890.5 hPa NNE 5.6 mph /  9 km/h 12.2 mph /  19.6 km/h 66 % 0.0 in /  0 mm
17:19 5.0 °F /  -15 °C -2.1 °F /  -18.9 °C 1000.9 in /  33890.5 hPa NNW 4.5 mph /  7.2 km/h 10.5 mph /  16.9 km/h 60 % 0.0 in /  0 mm
17:24 5.0 °F /  -15 °C -2.3 °F /  -19.1 °C 1000.9 in /  33890.5 hPa NNE 3.7 mph /  6 km/h 7.6 mph /  12.2 km/h 59 % 0.0 in /  0 mm
17:33 5.2 °F /  -14.9 °C -2.6 °F /  -19.2 °C 1001.9 in /  33924.3 hPa NNW 6.4 mph /  10.3 km/h 16.9 mph /  27.2 km/h 57 % 0.0 in /  0 mm
17:41 5.3 °F /  -14.8 °C -3.0 °F /  -19.4 °C 1002.9 in /  33958.2 hPa NW 4.7 mph /  7.6 km/h 11.9 mph /  19.2 km/h 55 % 0.0 in /  0 mm
17:47 5.3 °F /  -14.8 °C -3.3 °F /  -19.6 °C 1002.9 in /  33958.2 hPa NW 4.2 mph /  6.8 km/h 6.9 mph /  11.1 km/h 54 % 0.0 in /  0 mm
17:57 5.2 °F /  -14.9 °C -3.9 °F /  -19.9 °C 1002.9 in /  33958.2 hPa NNW 5.0 mph /  8 km/h 12.2 mph /  19.6 km/h 52 % 0.0 in /  0 mm
18:03 4.9 °F /  -15.1 °C -4.2 °F /  -20.1 °C 1002.9 in /  33958.2 hPa WNW 5.8 mph /  9.3 km/h 10.5 mph /  16.9 km/h 52 % 0.0 in /  0 mm
18:14 4.7 °F /  -15.2 °C -4.6 °F /  -20.3 °C 1002.9 in /  33958.2 hPa West 3.1 mph /  5 km/h 5.8 mph /  9.3 km/h 51 % 0.0 in /  0 mm
18:24 4.8 °F /  -15.1 °C -4.8 °F /  -20.4 °C 1002.9 in /  33958.2 hPa NW 4.3 mph /  6.9 km/h 7.9 mph /  12.7 km/h 50 % 0.0 in /  0 mm
18:29 4.7 °F /  -15.2 °C -5.1 °F /  -20.6 °C 1002.9 in /  33958.2 hPa NW 5.1 mph /  8.2 km/h 13.0 mph /  20.9 km/h 49 % 0.0 in /  0 mm
18:47 5.1 °F /  -14.9 °C -6.2 °F /  -21.2 °C 1002.9 in /  33958.2 hPa WNW 7.2 mph /  11.6 km/h 20.9 mph /  33.6 km/h 44 % 0.0 in /  0 mm
19:04 5.2 °F /  -14.9 °C -7.0 °F /  -21.7 °C 1002.9 in /  33958.2 hPa NW 6.8 mph /  10.9 km/h 16.6 mph /  26.7 km/h 41 % 0.0 in /  0 mm
19:10 5.1 °F /  -14.9 °C -7.4 °F /  -21.9 °C 1002.9 in /  33958.2 hPa WNW 7.2 mph /  11.6 km/h 17.2 mph /  27.7 km/h 40 % 0.0 in /  0 mm
19:17 4.8 °F /  -15.1 °C -7.7 °F /  -22.1 °C 1003.9 in /  33992.1 hPa NNW 4.7 mph /  7.6 km/h 11.9 mph /  19.2 km/h 40 % 0.0 in /  0 mm
19:23 4.6 °F /  -15.2 °C -8.2 °F /  -22.3 °C 1003.9 in /  33992.1 hPa North 4.7 mph /  7.6 km/h 10.5 mph /  16.9 km/h 39 % 0.0 in /  0 mm
19:30 4.5 °F /  -15.3 °C -8.3 °F /  -22.4 °C 1003.9 in /  33992.1 hPa NNW 4.7 mph /  7.6 km/h 13.7 mph /  22 km/h 39 % 0.0 in /  0 mm
19:55 3.0 °F /  -16.1 °C -9.3 °F /  -22.9 °C 1005.0 in /  34029.3 hPa NW 3.2 mph /  5.1 km/h 7.9 mph /  12.7 km/h 40 % 0.0 in /  0 mm
20:14 1.9 °F /  -16.7 °C -10.0 °F /  -23.3 °C 1005.0 in /  34029.3 hPa NW 2.7 mph /  4.3 km/h 5.8 mph /  9.3 km/h 41 % 0.0 in /  0 mm
20:19 1.4 °F /  -17 °C -10.1 °F /  -23.4 °C 1005.0 in /  34029.3 hPa WNW 2.6 mph /  4.2 km/h 4.0 mph /  6.4 km/h 42 % 0.0 in /  0 mm
20:27 1.2 °F /  -17.1 °C -10.0 °F /  -23.3 °C 1006.0 in /  34063.2 hPa NW 3.1 mph /  5 km/h 6.9 mph /  11.1 km/h 43 % 0.0 in /  0 mm
20:39 0.9 °F /  -17.3 °C -9.4 °F /  -23 °C 1006.0 in /  34063.2 hPa NW 2.4 mph /  3.9 km/h 6.1 mph /  9.8 km/h 46 % 0.0 in /  0 mm
20:44 1.0 °F /  -17.2 °C -9.3 °F /  -22.9 °C 1006.0 in /  34063.2 hPa WNW 3.1 mph /  5 km/h 13.7 mph /  22 km/h 46 % 0.0 in /  0 mm
20:49 0.9 °F /  -17.3 °C -9.2 °F /  -22.9 °C 1006.0 in /  34063.2 hPa NW 3.5 mph /  5.6 km/h 13.7 mph /  22 km/h 47 % 0.0 in /  0 mm
20:54 0.8 °F /  -17.3 °C -9.0 °F /  -22.8 °C 1006.0 in /  34063.2 hPa NW 3.7 mph /  6 km/h 9.0 mph /  14.5 km/h 48 % 0.0 in /  0 mm
20:59 0.8 °F /  -17.3 °C -8.7 °F /  -22.6 °C 1007.0 in /  34097 hPa NW 3.4 mph /  5.5 km/h 6.4 mph /  10.3 km/h 49 % 0.0 in /  0 mm
21:04 0.7 °F /  -17.4 °C -8.6 °F /  -22.6 °C 1007.0 in /  34097 hPa NW 2.9 mph /  4.7 km/h 5.8 mph /  9.3 km/h 50 % 0.0 in /  0 mm
21:09 0.6 °F /  -17.4 °C -8.7 °F /  -22.6 °C 1007.0 in /  34097 hPa NW 2.4 mph /  3.9 km/h 5.8 mph /  9.3 km/h 50 % 0.0 in /  0 mm
21:14 0.6 °F /  -17.4 °C -8.7 °F /  -22.6 °C 1007.0 in /  34097 hPa North 2.7 mph /  4.3 km/h 6.9 mph /  11.1 km/h 50 % 0.0 in /  0 mm
21:19 0.4 °F /  -17.6 °C -8.6 °F /  -22.6 °C 1007.0 in /  34097 hPa NNE 2.6 mph /  4.2 km/h 6.9 mph /  11.1 km/h 51 % 0.0 in /  0 mm
21:25 0.3 °F /  -17.6 °C -8.7 °F /  -22.6 °C 1007.0 in /  34097 hPa WNW 1.6 mph /  2.6 km/h 4.0 mph /  6.4 km/h 51 % 0.0 in /  0 mm
21:30 0.3 °F /  -17.6 °C -8.4 °F /  -22.4 °C 1008.0 in /  34130.9 hPa WNW 0.6 mph /  1 km/h 4.0 mph /  6.4 km/h 52 % 0.0 in /  0 mm
21:35 0.1 °F /  -17.7 °C -8.6 °F /  -22.6 °C 1008.0 in /  34130.9 hPa NNW 1.4 mph /  2.3 km/h 4.7 mph /  7.6 km/h 52 % 0.0 in /  0 mm
21:36 0.0 °F /  -17.8 °C -8.7 °F /  -22.6 °C 1008.0 in /  34130.9 hPa NNW 1.4 mph /  2.3 km/h 4.7 mph /  7.6 km/h 52 % 0.0 in /  0 mm
21:39 -0.1 °F /  -17.8 °C -8.8 °F /  -22.7 °C 1008.0 in /  34130.9 hPa NNW 1.6 mph /  2.6 km/h 4.7 mph /  7.6 km/h 52 % 0.0 in /  0 mm
21:41 -0.1 °F /  -17.8 °C -8.8 °F /  -22.7 °C 1008.0 in /  34130.9 hPa NW 1.6 mph /  2.6 km/h 4.7 mph /  7.6 km/h 52 % 0.0 in /  0 mm
21:43 -0.2 °F /  -17.9 °C -8.7 °F /  -22.6 °C 1006.0 in /  34063.2 hPa NW 1.1 mph /  1.8 km/h 4.7 mph /  7.6 km/h 53 % 0.0 in /  0 mm
21:46 -0.3 °F /  -17.9 °C -8.7 °F /  -22.6 °C 1006.0 in /  34063.2 hPa NW 0.5 mph /  0.8 km/h 4.7 mph /  7.6 km/h 53 % 0.0 in /  0 mm
21:51 -0.4 °F /  -18 °C -8.8 °F /  -22.7 °C 1006.0 in /  34063.2 hPa NW 0.2 mph /  0.3 km/h 2.6 mph /  4.2 km/h 53 % 0.0 in /  0 mm
21:56 -0.5 °F /  -18.1 °C -8.7 °F /  -22.6 °C 1007.0 in /  34097 hPa North 0.5 mph /  0.8 km/h 4.0 mph /  6.4 km/h 54 % 0.0 in /  0 mm
22:01 -0.7 °F /  -18.2 °C -8.9 °F /  -22.7 °C 1007.0 in /  34097 hPa North 0.6 mph /  1 km/h 4.0 mph /  6.4 km/h 54 % 0.0 in /  0 mm
22:06 -0.7 °F /  -18.2 °C -8.6 °F /  -22.6 °C 1007.0 in /  34097 hPa NNW 1.0 mph /  1.6 km/h 4.7 mph /  7.6 km/h 55 % 0.0 in /  0 mm
22:11 -0.9 °F /  -18.3 °C -8.8 °F /  -22.7 °C 1007.0 in /  34097 hPa NW 1.1 mph /  1.8 km/h 4.7 mph /  7.6 km/h 55 % 0.0 in /  0 mm
22:13 -0.9 °F /  -18.3 °C -8.8 °F /  -22.7 °C 1007.0 in /  34097 hPa NW 0.5 mph /  0.8 km/h 4.0 mph /  6.4 km/h 55 % 0.0 in /  0 mm
22:17 -1.0 °F /  -18.3 °C -8.7 °F /  -22.6 °C 1007.0 in /  34097 hPa NW 0.3 mph /  0.5 km/h 4.0 mph /  6.4 km/h 56 % 0.0 in /  0 mm
22:20 -1.0 °F /  -18.3 °C -8.7 °F /  -22.6 °C 1007.0 in /  34097 hPa WSW 0.5 mph /  0.8 km/h 4.3 mph /  6.9 km/h 56 % 0.0 in /  0 mm
22:21 -1.0 °F /  -18.3 °C -8.7 °F /  -22.6 °C 1007.0 in /  34097 hPa WNW 0.6 mph /  1 km/h 4.3 mph /  6.9 km/h 56 % 0.0 in /  0 mm
22:22 -1.0 °F /  -18.3 °C -8.7 °F /  -22.6 °C 1007.0 in /  34097 hPa WNW 0.8 mph /  1.3 km/h 4.3 mph /  6.9 km/h 56 % 0.0 in /  0 mm
22:25 -1.1 °F /  -18.4 °C -8.8 °F /  -22.7 °C 1007.0 in /  34097 hPa WNW 0.8 mph /  1.3 km/h 4.3 mph /  6.9 km/h 56 % 0.0 in /  0 mm
22:26 -1.2 °F /  -18.4 °C -8.9 °F /  -22.7 °C 1008.0 in /  34130.9 hPa WNW 0.8 mph /  1.3 km/h 4.3 mph /  6.9 km/h 56 % 0.0 in /  0 mm
22:29 -1.2 °F /  -18.4 °C -8.7 °F /  -22.6 °C 1008.0 in /  34130.9 hPa North 0.6 mph /  1 km/h 4.0 mph /  6.4 km/h 57 % 0.0 in /  0 mm
22:30 -1.2 °F /  -18.4 °C -8.7 °F /  -22.6 °C 1008.0 in /  34130.9 hPa North 0.8 mph /  1.3 km/h 4.0 mph /  6.4 km/h 57 % 0.0 in /  0 mm
22:35 -1.4 °F /  -18.6 °C -8.8 °F /  -22.7 °C 1008.0 in /  34130.9 hPa NNW 1.6 mph /  2.6 km/h 4.3 mph /  6.9 km/h 57 % 0.0 in /  0 mm
22:36 -1.4 °F /  -18.6 °C -8.8 °F /  -22.7 °C 1008.0 in /  34130.9 hPa NNW 1.8 mph /  2.9 km/h 4.3 mph /  6.9 km/h 57 % 0.0 in /  0 mm
22:39 -1.4 °F /  -18.6 °C -8.6 °F /  -22.6 °C 1008.0 in /  34130.9 hPa NNW 1.9 mph /  3.1 km/h 5.0 mph /  8 km/h 58 % 0.0 in /  0 mm
22:44 -1.5 °F /  -18.6 °C -8.7 °F /  -22.6 °C 1008.0 in /  34130.9 hPa South 1.0 mph /  1.6 km/h 5.0 mph /  8 km/h 58 % 0.0 in /  0 mm
22:49 -1.5 °F /  -18.6 °C -8.7 °F /  -22.6 °C 1008.0 in /  34130.9 hPa SSE 0.2 mph /  0.3 km/h 2.1 mph /  3.4 km/h 58 % 0.0 in /  0 mm
22:51 -1.6 °F /  -18.7 °C -8.6 °F /  -22.6 °C 1008.0 in /  34130.9 hPa Calm     59 % 0.0 in /  0 mm
22:56 -1.7 °F /  -18.7 °C -8.7 °F /  -22.6 °C 1008.0 in /  34130.9 hPa South 0.2 mph /  0.3 km/h 3.2 mph /  5.1 km/h 59 % 0.0 in /  0 mm
23:01 -1.7 °F /  -18.7 °C -8.7 °F /  -22.6 °C 1008.0 in /  34130.9 hPa SSE 0.5 mph /  0.8 km/h 3.2 mph /  5.1 km/h 59 % 0.0 in /  0 mm
23:06 -1.8 °F /  -18.8 °C -8.6 °F /  -22.6 °C 1008.0 in /  34130.9 hPa NW 1.3 mph /  2.1 km/h 3.5 mph /  5.6 km/h 60 % 0.0 in /  0 mm
23:11 -1.9 °F /  -18.8 °C -8.7 °F /  -22.6 °C 1008.0 in /  34130.9 hPa WNW 2.6 mph /  4.2 km/h 4.3 mph /  6.9 km/h 60 % 0.0 in /  0 mm
23:16 -1.9 °F /  -18.8 °C -8.7 °F /  -22.6 °C 1008.0 in /  34130.9 hPa West 2.6 mph /  4.2 km/h 5.5 mph /  8.9 km/h 60 % 0.0 in /  0 mm
23:21 -2.0 °F /  -18.9 °C -8.5 °F /  -22.5 °C 1008.0 in /  34130.9 hPa WNW 1.9 mph /  3.1 km/h 5.5 mph /  8.9 km/h 61 % 0.0 in /  0 mm
23:26 -2.1 °F /  -18.9 °C -8.6 °F /  -22.6 °C 1009.0 in /  34164.7 hPa NNW 1.1 mph /  1.8 km/h 4.0 mph /  6.4 km/h 61 % 0.0 in /  0 mm
23:31 -2.1 °F /  -18.9 °C -8.4 °F /  -22.4 °C 1009.0 in /  34164.7 hPa NNW 0.5 mph /  0.8 km/h 2.6 mph /  4.2 km/h 62 % 0.0 in /  0 mm
23:36 -2.2 °F /  -19 °C -8.5 °F /  -22.5 °C 1009.0 in /  34164.7 hPa West 0.2 mph /  0.3 km/h 3.2 mph /  5.1 km/h 62 % 0.0 in /  0 mm
23:41 -2.2 °F /  -19 °C -8.3 °F /  -22.4 °C 1008.0 in /  34130.9 hPa South 1.6 mph /  2.6 km/h 5.5 mph /  8.9 km/h 63 % 0.0 in /  0 mm
23:46 -2.2 °F /  -19 °C -8.3 °F /  -22.4 °C 1008.0 in /  34130.9 hPa SW 2.7 mph /  4.3 km/h 5.5 mph /  8.9 km/h 63 % 0.0 in /  0 mm
23:51 -2.3 °F /  -19.1 °C -8.4 °F /  -22.4 °C 1008.0 in /  34130.9 hPa WSW 3.2 mph /  5.1 km/h 5.5 mph /  8.9 km/h 63 % 0.0 in /  0 mm
23:56 -2.3 °F /  -19.1 °C -8.2 °F /  -22.3 °C 1008.0 in /  34130.9 hPa SW 3.1 mph /  5 km/h 5.5 mph /  8.9 km/h 64 % 0.0 in /  0 mm
Vremenska postaja Senovo
Podatki zbrani iz Weather Underground - 2.25 mb

Script developed by  Jim McMurry - jmcmurry@mwt.net Adapted for the template by  Wim van der Kuil - Leuven-Template.eu

Vremenski podatki so objavljeni na:

European Weather Network

WeatherCloud

Weather Underground

AWEKAS

HAMweather, WeatherForYou, PWS Weather

MapView

Geostik

Slovenia weather network

Oprema, ki se uporablja:

Vremenski program
Cumulus

Vremenski server
Asus

Cumulus

Asus